sensor_id;sensor_type;location;lat;lon;timestamp;P1;durP1;ratioP1;P2;durP2;ratioP2
9834;SDS011;4956;50.996;13.716;2022-08-18T00:02:50;5.85;;;5.00;;
9834;SDS011;4956;50.996;13.716;2022-08-18T00:06:10;5.37;;;4.87;;
9834;SDS011;4956;50.996;13.716;2022-08-18T00:09:32;6.22;;;4.85;;
9834;SDS011;4956;50.996;13.716;2022-08-18T00:12:53;5.15;;;4.65;;
9834;SDS011;4956;50.996;13.716;2022-08-18T00:16:13;5.17;;;4.67;;
9834;SDS011;4956;50.996;13.716;2022-08-18T00:19:33;7.03;;;5.03;;
9834;SDS011;4956;50.996;13.716;2022-08-18T00:22:54;5.07;;;4.57;;
9834;SDS011;4956;50.996;13.716;2022-08-18T00:26:16;4.97;;;4.47;;
9834;SDS011;4956;50.996;13.716;2022-08-18T00:29:37;4.60;;;4.07;;
9834;SDS011;4956;50.996;13.716;2022-08-18T00:32:58;5.43;;;4.80;;
9834;SDS011;4956;50.996;13.716;2022-08-18T00:36:20;6.75;;;4.72;;
9834;SDS011;4956;50.996;13.716;2022-08-18T00:39:40;5.63;;;4.90;;
9834;SDS011;4956;50.996;13.716;2022-08-18T00:43:02;7.45;;;5.00;;
9834;SDS011;4956;50.996;13.716;2022-08-18T00:46:25;6.68;;;4.72;;
9834;SDS011;4956;50.996;13.716;2022-08-18T00:49:49;5.30;;;4.80;;
9834;SDS011;4956;50.996;13.716;2022-08-18T00:53:24;5.50;;;5.00;;
9834;SDS011;4956;50.996;13.716;2022-08-18T00:56:52;6.30;;;5.10;;
9834;SDS011;4956;50.996;13.716;2022-08-18T01:00:15;6.25;;;4.80;;
9834;SDS011;4956;50.996;13.716;2022-08-18T01:03:35;5.00;;;4.60;;
9834;SDS011;4956;50.996;13.716;2022-08-18T01:06:59;5.40;;;4.93;;
9834;SDS011;4956;50.996;13.716;2022-08-18T01:10:22;5.50;;;4.90;;
9834;SDS011;4956;50.996;13.716;2022-08-18T01:13:42;6.03;;;5.38;;
9834;SDS011;4956;50.996;13.716;2022-08-18T01:17:03;6.30;;;5.20;;
9834;SDS011;4956;50.996;13.716;2022-08-18T01:24:59;8.27;;;6.10;;
9834;SDS011;4956;50.996;13.716;2022-08-18T01:28:49;5.80;;;5.30;;
9834;SDS011;4956;50.996;13.716;2022-08-18T01:32:09;6.38;;;5.78;;
9834;SDS011;4956;50.996;13.716;2022-08-18T01:35:31;6.03;;;5.43;;
9834;SDS011;4956;50.996;13.716;2022-08-18T01:38:54;5.95;;;5.35;;
9834;SDS011;4956;50.996;13.716;2022-08-18T01:42:14;7.27;;;5.30;;
9834;SDS011;4956;50.996;13.716;2022-08-18T01:45:39;5.72;;;5.15;;
9834;SDS011;4956;50.996;13.716;2022-08-18T01:49:01;5.88;;;4.82;;
9834;SDS011;4956;50.996;13.716;2022-08-18T01:52:22;5.60;;;5.10;;
9834;SDS011;4956;50.996;13.716;2022-08-18T01:55:43;6.60;;;5.63;;
9834;SDS011;4956;50.996;13.716;2022-08-18T01:59:04;5.80;;;5.20;;
9834;SDS011;4956;50.996;13.716;2022-08-18T02:02:27;7.65;;;5.25;;
9834;SDS011;4956;50.996;13.716;2022-08-18T02:05:50;6.63;;;5.22;;
9834;SDS011;4956;50.996;13.716;2022-08-18T02:09:10;5.57;;;5.07;;
9834;SDS011;4956;50.996;13.716;2022-08-18T02:12:31;5.60;;;5.10;;
9834;SDS011;4956;50.996;13.716;2022-08-18T02:15:51;5.50;;;4.90;;
9834;SDS011;4956;50.996;13.716;2022-08-18T02:19:12;5.65;;;4.93;;
9834;SDS011;4956;50.996;13.716;2022-08-18T02:22:33;5.65;;;5.05;;
9834;SDS011;4956;50.996;13.716;2022-08-18T02:25:53;4.70;;;4.30;;
9834;SDS011;4956;50.996;13.716;2022-08-18T02:29:13;6.17;;;4.53;;
9834;SDS011;4956;50.996;13.716;2022-08-18T02:32:34;5.30;;;4.80;;
9834;SDS011;4956;50.996;13.716;2022-08-18T02:35:54;6.25;;;4.80;;
9834;SDS011;4956;50.996;13.716;2022-08-18T02:39:15;5.30;;;4.80;;
9834;SDS011;4956;50.996;13.716;2022-08-18T02:42:35;5.07;;;4.57;;
9834;SDS011;4956;50.996;13.716;2022-08-18T02:45:57;5.30;;;4.57;;
9834;SDS011;4956;50.996;13.716;2022-08-18T02:49:17;5.28;;;4.70;;
9834;SDS011;4956;50.996;13.716;2022-08-18T02:52:38;5.10;;;4.70;;
9834;SDS011;4956;50.996;13.716;2022-08-18T02:56:12;5.00;;;4.60;;
9834;SDS011;4956;50.996;13.716;2022-08-18T02:59:43;4.82;;;4.40;;
9834;SDS011;4956;50.996;13.716;2022-08-18T03:03:04;5.20;;;4.70;;
9834;SDS011;4956;50.996;13.716;2022-08-18T03:06:25;4.72;;;4.20;;
9834;SDS011;4956;50.996;13.716;2022-08-18T03:09:46;5.50;;;4.63;;
9834;SDS011;4956;50.996;13.716;2022-08-18T03:13:06;5.83;;;4.40;;
9834;SDS011;4956;50.996;13.716;2022-08-18T03:16:26;5.33;;;4.60;;
9834;SDS011;4956;50.996;13.716;2022-08-18T03:19:51;5.43;;;4.93;;
9834;SDS011;4956;50.996;13.716;2022-08-18T03:23:12;5.70;;;4.65;;
9834;SDS011;4956;50.996;13.716;2022-08-18T03:26:32;5.63;;;4.77;;
9834;SDS011;4956;50.996;13.716;2022-08-18T03:29:53;5.18;;;4.60;;
9834;SDS011;4956;50.996;13.716;2022-08-18T03:33:13;5.13;;;4.63;;
9834;SDS011;4956;50.996;13.716;2022-08-18T03:36:34;5.50;;;5.00;;
9834;SDS011;4956;50.996;13.716;2022-08-18T03:39:55;6.35;;;5.13;;
9834;SDS011;4956;50.996;13.716;2022-08-18T03:43:16;5.40;;;4.90;;
9834;SDS011;4956;50.996;13.716;2022-08-18T03:46:36;5.67;;;5.17;;
9834;SDS011;4956;50.996;13.716;2022-08-18T03:49:56;5.70;;;5.20;;
9834;SDS011;4956;50.996;13.716;2022-08-18T03:53:18;5.20;;;4.70;;
9834;SDS011;4956;50.996;13.716;2022-08-18T03:56:41;5.35;;;4.72;;
9834;SDS011;4956;50.996;13.716;2022-08-18T04:00:02;5.35;;;4.85;;
9834;SDS011;4956;50.996;13.716;2022-08-18T04:03:25;6.00;;;5.05;;
9834;SDS011;4956;50.996;13.716;2022-08-18T04:06:48;7.70;;;5.18;;
9834;SDS011;4956;50.996;13.716;2022-08-18T04:10:11;6.20;;;5.30;;
9834;SDS011;4956;50.996;13.716;2022-08-18T04:13:31;5.97;;;5.35;;
9834;SDS011;4956;50.996;13.716;2022-08-18T04:16:55;6.15;;;5.55;;
9834;SDS011;4956;50.996;13.716;2022-08-18T04:20:17;6.20;;;5.60;;
9834;SDS011;4956;50.996;13.716;2022-08-18T04:23:37;5.90;;;5.30;;
9834;SDS011;4956;50.996;13.716;2022-08-18T04:27:00;6.55;;;5.40;;
9834;SDS011;4956;50.996;13.716;2022-08-18T04:30:21;6.00;;;5.40;;
9834;SDS011;4956;50.996;13.716;2022-08-18T04:33:42;7.90;;;5.93;;
9834;SDS011;4956;50.996;13.716;2022-08-18T04:37:03;5.95;;;5.32;;
9834;SDS011;4956;50.996;13.716;2022-08-18T04:40:27;8.00;;;5.45;;
9834;SDS011;4956;50.996;13.716;2022-08-18T04:43:48;6.25;;;5.65;;
9834;SDS011;4956;50.996;13.716;2022-08-18T04:47:11;6.97;;;6.28;;
9834;SDS011;4956;50.996;13.716;2022-08-18T04:50:32;6.50;;;5.90;;
9834;SDS011;4956;50.996;13.716;2022-08-18T04:53:52;8.57;;;6.53;;
9834;SDS011;4956;50.996;13.716;2022-08-18T04:57:14;7.47;;;5.95;;
9834;SDS011;4956;50.996;13.716;2022-08-18T05:00:36;7.05;;;5.82;;
9834;SDS011;4956;50.996;13.716;2022-08-18T05:03:57;6.40;;;5.80;;
9834;SDS011;4956;50.996;13.716;2022-08-18T05:07:18;8.00;;;6.30;;
9834;SDS011;4956;50.996;13.716;2022-08-18T05:10:41;7.60;;;6.78;;
9834;SDS011;4956;50.996;13.716;2022-08-18T05:14:03;6.80;;;6.10;;
9834;SDS011;4956;50.996;13.716;2022-08-18T05:17:25;7.80;;;6.30;;
9834;SDS011;4956;50.996;13.716;2022-08-18T05:20:47;6.32;;;5.72;;
9834;SDS011;4956;50.996;13.716;2022-08-18T05:24:08;7.50;;;5.90;;
9834;SDS011;4956;50.996;13.716;2022-08-18T05:27:32;6.22;;;5.53;;
9834;SDS011;4956;50.996;13.716;2022-08-18T05:30:54;6.55;;;5.85;;
9834;SDS011;4956;50.996;13.716;2022-08-18T05:34:16;6.45;;;5.85;;
9834;SDS011;4956;50.996;13.716;2022-08-18T05:37:51;6.70;;;6.03;;
9834;SDS011;4956;50.996;13.716;2022-08-18T05:41:23;7.45;;;5.38;;
9834;SDS011;4956;50.996;13.716;2022-08-18T05:44:48;8.90;;;5.78;;
9834;SDS011;4956;50.996;13.716;2022-08-18T05:48:09;7.07;;;5.75;;
9834;SDS011;4956;50.996;13.716;2022-08-18T05:51:32;7.93;;;6.00;;
9834;SDS011;4956;50.996;13.716;2022-08-18T05:54:59;6.55;;;5.90;;
9834;SDS011;4956;50.996;13.716;2022-08-18T05:58:40;7.20;;;6.50;;
9834;SDS011;4956;50.996;13.716;2022-08-18T06:05:35;6.53;;;5.50;;
9834;SDS011;4956;50.996;13.716;2022-08-18T06:09:09;6.63;;;5.10;;
9834;SDS011;4956;50.996;13.716;2022-08-18T06:12:40;8.77;;;6.28;;
9834;SDS011;4956;50.996;13.716;2022-08-18T06:19:47;6.78;;;5.72;;
9834;SDS011;4956;50.996;13.716;2022-08-18T06:27:00;6.03;;;5.43;;
9834;SDS011;4956;50.996;13.716;2022-08-18T06:45:02;8.40;;;5.13;;
9834;SDS011;4956;50.996;13.716;2022-08-18T06:48:28;5.90;;;5.30;;
9834;SDS011;4956;50.996;13.716;2022-08-18T06:51:51;7.35;;;5.53;;
9834;SDS011;4956;50.996;13.716;2022-08-18T06:55:15;7.67;;;5.43;;
9834;SDS011;4956;50.996;13.716;2022-08-18T06:58:37;8.57;;;5.82;;
9834;SDS011;4956;50.996;13.716;2022-08-18T07:02:00;6.20;;;5.60;;
9834;SDS011;4956;50.996;13.716;2022-08-18T07:05:22;6.50;;;5.57;;
9834;SDS011;4956;50.996;13.716;2022-08-18T07:08:44;9.02;;;5.35;;
9834;SDS011;4956;50.996;13.716;2022-08-18T07:12:06;5.80;;;5.07;;
9834;SDS011;4956;50.996;13.716;2022-08-18T07:15:29;6.63;;;5.55;;
9834;SDS011;4956;50.996;13.716;2022-08-18T07:18:51;8.77;;;5.35;;
9834;SDS011;4956;50.996;13.716;2022-08-18T07:22:12;6.88;;;5.43;;
9834;SDS011;4956;50.996;13.716;2022-08-18T07:25:37;7.55;;;5.40;;
9834;SDS011;4956;50.996;13.716;2022-08-18T07:29:11;8.75;;;5.05;;
9834;SDS011;4956;50.996;13.716;2022-08-18T07:32:34;7.25;;;5.40;;
9834;SDS011;4956;50.996;13.716;2022-08-18T07:35:59;7.32;;;5.38;;
9834;SDS011;4956;50.996;13.716;2022-08-18T07:39:25;5.85;;;5.15;;
9834;SDS011;4956;50.996;13.716;2022-08-18T07:42:54;7.45;;;5.63;;
9834;SDS011;4956;50.996;13.716;2022-08-18T07:49:58;5.97;;;5.25;;
9834;SDS011;4956;50.996;13.716;2022-08-18T08:00:41;6.28;;;5.65;;
9834;SDS011;4956;50.996;13.716;2022-08-18T08:04:10;8.77;;;6.57;;
9834;SDS011;4956;50.996;13.716;2022-08-18T08:14:44;10.07;;;5.93;;
9834;SDS011;4956;50.996;13.716;2022-08-18T08:18:11;9.80;;;6.20;;
9834;SDS011;4956;50.996;13.716;2022-08-18T08:21:37;9.52;;;5.82;;
9834;SDS011;4956;50.996;13.716;2022-08-18T08:25:13;6.47;;;5.72;;
9834;SDS011;4956;50.996;13.716;2022-08-18T08:39:33;6.75;;;5.63;;
9834;SDS011;4956;50.996;13.716;2022-08-18T08:42:57;6.38;;;5.53;;
9834;SDS011;4956;50.996;13.716;2022-08-18T08:46:21;9.48;;;6.03;;
9834;SDS011;4956;50.996;13.716;2022-08-18T08:49:46;7.07;;;5.63;;
9834;SDS011;4956;50.996;13.716;2022-08-18T08:53:13;7.65;;;5.63;;
9834;SDS011;4956;50.996;13.716;2022-08-18T08:56:43;10.57;;;6.10;;
9834;SDS011;4956;50.996;13.716;2022-08-18T09:00:08;7.65;;;5.45;;
9834;SDS011;4956;50.996;13.716;2022-08-18T09:03:38;9.15;;;5.90;;
9834;SDS011;4956;50.996;13.716;2022-08-18T09:22:00;7.20;;;5.85;;
9834;SDS011;4956;50.996;13.716;2022-08-18T09:25:31;8.88;;;5.95;;
9834;SDS011;4956;50.996;13.716;2022-08-18T09:28:58;6.05;;;5.45;;
9834;SDS011;4956;50.996;13.716;2022-08-18T09:35:50;6.33;;;5.73;;
9834;SDS011;4956;50.996;13.716;2022-08-18T09:43:16;8.13;;;5.40;;
9834;SDS011;4956;50.996;13.716;2022-08-18T09:53:35;5.85;;;5.25;;
9834;SDS011;4956;50.996;13.716;2022-08-18T09:57:06;6.80;;;6.10;;
9834;SDS011;4956;50.996;13.716;2022-08-18T10:00:36;7.82;;;5.93;;
9834;SDS011;4956;50.996;13.716;2022-08-18T10:04:16;8.65;;;5.90;;
9834;SDS011;4956;50.996;13.716;2022-08-18T10:07:39;6.30;;;5.70;;
9834;SDS011;4956;50.996;13.716;2022-08-18T10:11:16;6.60;;;5.95;;
9834;SDS011;4956;50.996;13.716;2022-08-18T10:14:48;6.25;;;5.43;;
9834;SDS011;4956;50.996;13.716;2022-08-18T10:22:38;6.82;;;6.20;;
9834;SDS011;4956;50.996;13.716;2022-08-18T10:26:00;7.03;;;5.88;;
9834;SDS011;4956;50.996;13.716;2022-08-18T10:32:45;6.80;;;6.10;;
9834;SDS011;4956;50.996;13.716;2022-08-18T10:36:05;7.05;;;5.78;;
9834;SDS011;4956;50.996;13.716;2022-08-18T10:46:40;7.65;;;6.85;;
9834;SDS011;4956;50.996;13.716;2022-08-18T10:50:06;7.65;;;6.57;;
9834;SDS011;4956;50.996;13.716;2022-08-18T10:53:43;7.25;;;6.50;;
9834;SDS011;4956;50.996;13.716;2022-08-18T10:57:36;9.95;;;6.53;;
9834;SDS011;4956;50.996;13.716;2022-08-18T11:01:22;8.57;;;6.68;;
9834;SDS011;4956;50.996;13.716;2022-08-18T11:04:49;15.07;;;6.70;;
9834;SDS011;4956;50.996;13.716;2022-08-18T11:08:14;13.48;;;6.25;;
9834;SDS011;4956;50.996;13.716;2022-08-18T11:11:39;9.90;;;6.07;;
9834;SDS011;4956;50.996;13.716;2022-08-18T11:15:05;8.10;;;6.28;;
9834;SDS011;4956;50.996;13.716;2022-08-18T11:22:02;8.40;;;6.15;;
9834;SDS011;4956;50.996;13.716;2022-08-18T11:25:27;7.85;;;5.72;;
9834;SDS011;4956;50.996;13.716;2022-08-18T11:28:53;7.15;;;6.45;;
9834;SDS011;4956;50.996;13.716;2022-08-18T11:35:46;6.93;;;6.15;;
9834;SDS011;4956;50.996;13.716;2022-08-18T11:39:09;8.10;;;6.30;;
9834;SDS011;4956;50.996;13.716;2022-08-18T11:42:33;7.05;;;6.35;;
9834;SDS011;4956;50.996;13.716;2022-08-18T11:46:00;7.90;;;6.80;;
9834;SDS011;4956;50.996;13.716;2022-08-18T11:49:30;10.95;;;7.10;;
9834;SDS011;4956;50.996;13.716;2022-08-18T11:52:52;9.50;;;6.68;;
9834;SDS011;4956;50.996;13.716;2022-08-18T11:59:32;8.85;;;7.13;;
9834;SDS011;4956;50.996;13.716;2022-08-18T12:03:05;9.65;;;6.43;;
9834;SDS011;4956;50.996;13.716;2022-08-18T12:10:23;7.63;;;6.20;;
9834;SDS011;4956;50.996;13.716;2022-08-18T12:13:56;10.18;;;6.75;;
9834;SDS011;4956;50.996;13.716;2022-08-18T12:17:25;7.18;;;6.50;;
9834;SDS011;4956;50.996;13.716;2022-08-18T12:20:48;9.93;;;6.85;;
9834;SDS011;4956;50.996;13.716;2022-08-18T12:24:10;8.20;;;7.05;;
9834;SDS011;4956;50.996;13.716;2022-08-18T12:27:36;10.65;;;7.25;;
9834;SDS011;4956;50.996;13.716;2022-08-18T12:30:57;9.20;;;7.18;;
9834;SDS011;4956;50.996;13.716;2022-08-18T12:34:17;13.03;;;7.50;;
9834;SDS011;4956;50.996;13.716;2022-08-18T12:37:43;11.70;;;7.18;;
9834;SDS011;4956;50.996;13.716;2022-08-18T12:41:03;10.55;;;7.32;;
9834;SDS011;4956;50.996;13.716;2022-08-18T12:44:24;15.20;;;7.30;;
9834;SDS011;4956;50.996;13.716;2022-08-18T12:47:45;11.82;;;7.60;;
9834;SDS011;4956;50.996;13.716;2022-08-18T12:51:05;11.37;;;7.10;;
9834;SDS011;4956;50.996;13.716;2022-08-18T12:54:26;8.32;;;7.50;;
9834;SDS011;4956;50.996;13.716;2022-08-18T12:57:46;9.23;;;6.93;;
9834;SDS011;4956;50.996;13.716;2022-08-18T13:01:06;10.40;;;6.90;;
9834;SDS011;4956;50.996;13.716;2022-08-18T13:04:27;10.33;;;7.20;;
9834;SDS011;4956;50.996;13.716;2022-08-18T13:07:48;11.57;;;7.60;;
9834;SDS011;4956;50.996;13.716;2022-08-18T13:11:08;8.03;;;7.20;;
9834;SDS011;4956;50.996;13.716;2022-08-18T13:14:29;14.85;;;7.13;;
9834;SDS011;4956;50.996;13.716;2022-08-18T13:17:50;12.30;;;7.13;;
9834;SDS011;4956;50.996;13.716;2022-08-18T13:21:11;9.27;;;7.10;;
9834;SDS011;4956;50.996;13.716;2022-08-18T13:24:32;9.38;;;7.00;;
9834;SDS011;4956;50.996;13.716;2022-08-18T13:27:53;9.68;;;8.02;;
9834;SDS011;4956;50.996;13.716;2022-08-18T13:31:14;12.45;;;7.72;;
9834;SDS011;4956;50.996;13.716;2022-08-18T13:34:35;11.73;;;7.47;;
9834;SDS011;4956;50.996;13.716;2022-08-18T13:37:55;8.98;;;7.43;;
9834;SDS011;4956;50.996;13.716;2022-08-18T13:41:15;13.13;;;8.40;;
9834;SDS011;4956;50.996;13.716;2022-08-18T13:44:36;11.63;;;8.07;;
9834;SDS011;4956;50.996;13.716;2022-08-18T13:47:56;10.63;;;7.70;;
9834;SDS011;4956;50.996;13.716;2022-08-18T13:51:19;15.40;;;8.10;;
9834;SDS011;4956;50.996;13.716;2022-08-18T13:54:41;15.30;;;7.90;;
9834;SDS011;4956;50.996;13.716;2022-08-18T13:58:04;13.18;;;8.38;;
9834;SDS011;4956;50.996;13.716;2022-08-18T14:01:25;8.20;;;7.50;;
9834;SDS011;4956;50.996;13.716;2022-08-18T14:04:45;11.30;;;8.07;;
9834;SDS011;4956;50.996;13.716;2022-08-18T14:08:07;12.45;;;8.00;;
9834;SDS011;4956;50.996;13.716;2022-08-18T14:11:28;9.67;;;7.80;;
9834;SDS011;4956;50.996;13.716;2022-08-18T14:14:49;8.82;;;7.85;;
9834;SDS011;4956;50.996;13.716;2022-08-18T14:18:13;13.82;;;8.68;;
9834;SDS011;4956;50.996;13.716;2022-08-18T14:21:34;13.40;;;8.13;;
9834;SDS011;4956;50.996;13.716;2022-08-18T14:25:14;10.98;;;9.10;;
9834;SDS011;4956;50.996;13.716;2022-08-18T14:28:54;11.10;;;8.52;;
9834;SDS011;4956;50.996;13.716;2022-08-18T14:32:17;11.63;;;8.73;;
9834;SDS011;4956;50.996;13.716;2022-08-18T14:35:39;14.52;;;8.80;;
9834;SDS011;4956;50.996;13.716;2022-08-18T14:39:00;15.20;;;8.73;;
9834;SDS011;4956;50.996;13.716;2022-08-18T14:42:21;12.75;;;8.30;;
9834;SDS011;4956;50.996;13.716;2022-08-18T14:45:42;13.55;;;10.07;;
9834;SDS011;4956;50.996;13.716;2022-08-18T14:49:07;11.55;;;9.05;;
9834;SDS011;4956;50.996;13.716;2022-08-18T14:52:27;16.27;;;11.03;;
9834;SDS011;4956;50.996;13.716;2022-08-18T14:55:48;11.97;;;9.23;;
9834;SDS011;4956;50.996;13.716;2022-08-18T14:59:11;12.75;;;10.88;;
9834;SDS011;4956;50.996;13.716;2022-08-18T15:02:31;14.70;;;10.57;;
9834;SDS011;4956;50.996;13.716;2022-08-18T15:05:52;10.50;;;9.40;;
9834;SDS011;4956;50.996;13.716;2022-08-18T15:09:13;10.35;;;9.27;;
9834;SDS011;4956;50.996;13.716;2022-08-18T15:12:34;12.82;;;9.93;;
9834;SDS011;4956;50.996;13.716;2022-08-18T15:15:54;13.68;;;9.15;;
9834;SDS011;4956;50.996;13.716;2022-08-18T15:19:15;12.47;;;10.27;;
9834;SDS011;4956;50.996;13.716;2022-08-18T15:22:39;16.03;;;10.47;;
9834;SDS011;4956;50.996;13.716;2022-08-18T15:26:23;13.77;;;10.88;;
9834;SDS011;4956;50.996;13.716;2022-08-18T15:29:44;10.38;;;9.38;;
9834;SDS011;4956;50.996;13.716;2022-08-18T15:33:05;11.55;;;9.35;;
9834;SDS011;4956;50.996;13.716;2022-08-18T15:36:26;14.93;;;9.82;;
9834;SDS011;4956;50.996;13.716;2022-08-18T15:39:47;21.42;;;11.07;;
9834;SDS011;4956;50.996;13.716;2022-08-18T15:43:08;15.65;;;10.68;;
9834;SDS011;4956;50.996;13.716;2022-08-18T15:46:30;14.43;;;11.03;;
9834;SDS011;4956;50.996;13.716;2022-08-18T15:49:51;11.98;;;10.45;;
9834;SDS011;4956;50.996;13.716;2022-08-18T15:53:11;15.85;;;10.43;;
9834;SDS011;4956;50.996;13.716;2022-08-18T15:56:32;13.80;;;10.35;;
9834;SDS011;4956;50.996;13.716;2022-08-18T15:59:52;10.52;;;9.18;;
9834;SDS011;4956;50.996;13.716;2022-08-18T16:03:13;10.70;;;9.70;;
9834;SDS011;4956;50.996;13.716;2022-08-18T16:06:36;10.90;;;9.48;;
9834;SDS011;4956;50.996;13.716;2022-08-18T16:09:57;10.98;;;9.45;;
9834;SDS011;4956;50.996;13.716;2022-08-18T16:13:18;10.20;;;9.20;;
9834;SDS011;4956;50.996;13.716;2022-08-18T16:16:38;12.73;;;9.95;;
9834;SDS011;4956;50.996;13.716;2022-08-18T16:19:59;13.37;;;9.90;;
9834;SDS011;4956;50.996;13.716;2022-08-18T16:23:20;11.75;;;9.98;;
9834;SDS011;4956;50.996;13.716;2022-08-18T16:26:41;10.90;;;9.40;;
9834;SDS011;4956;50.996;13.716;2022-08-18T16:30:02;12.20;;;9.93;;
9834;SDS011;4956;50.996;13.716;2022-08-18T16:33:25;12.00;;;9.90;;
9834;SDS011;4956;50.996;13.716;2022-08-18T16:36:46;10.98;;;9.98;;
9834;SDS011;4956;50.996;13.716;2022-08-18T16:40:06;10.87;;;9.80;;
9834;SDS011;4956;50.996;13.716;2022-08-18T16:43:27;11.45;;;9.75;;
9834;SDS011;4956;50.996;13.716;2022-08-18T16:46:49;14.10;;;10.57;;
9834;SDS011;4956;50.996;13.716;2022-08-18T16:50:12;15.45;;;10.50;;
9834;SDS011;4956;50.996;13.716;2022-08-18T16:53:34;12.00;;;9.68;;
9834;SDS011;4956;50.996;13.716;2022-08-18T16:56:54;10.13;;;9.23;;
9834;SDS011;4956;50.996;13.716;2022-08-18T17:00:14;10.73;;;9.65;;
9834;SDS011;4956;50.996;13.716;2022-08-18T17:03:53;10.88;;;9.57;;
9834;SDS011;4956;50.996;13.716;2022-08-18T17:07:27;10.98;;;9.73;;
9834;SDS011;4956;50.996;13.716;2022-08-18T17:10:48;11.98;;;9.43;;
9834;SDS011;4956;50.996;13.716;2022-08-18T17:14:09;10.65;;;9.55;;
9834;SDS011;4956;50.996;13.716;2022-08-18T17:17:29;10.98;;;9.80;;
9834;SDS011;4956;50.996;13.716;2022-08-18T17:20:50;11.88;;;9.57;;
9834;SDS011;4956;50.996;13.716;2022-08-18T17:24:11;11.82;;;10.73;;
9834;SDS011;4956;50.996;13.716;2022-08-18T17:27:31;11.67;;;10.57;;
9834;SDS011;4956;50.996;13.716;2022-08-18T17:30:52;11.85;;;10.65;;
9834;SDS011;4956;50.996;13.716;2022-08-18T17:34:13;12.52;;;11.38;;
9834;SDS011;4956;50.996;13.716;2022-08-18T17:37:34;11.95;;;10.38;;
9834;SDS011;4956;50.996;13.716;2022-08-18T17:40:56;14.07;;;10.85;;
9834;SDS011;4956;50.996;13.716;2022-08-18T17:44:17;12.55;;;11.25;;
9834;SDS011;4956;50.996;13.716;2022-08-18T17:47:42;11.27;;;9.80;;
9834;SDS011;4956;50.996;13.716;2022-08-18T17:51:16;12.10;;;10.90;;
9834;SDS011;4956;50.996;13.716;2022-08-18T17:54:56;14.38;;;12.77;;
9834;SDS011;4956;50.996;13.716;2022-08-18T17:58:36;13.65;;;12.27;;
9834;SDS011;4956;50.996;13.716;2022-08-18T18:02:10;11.95;;;10.82;;
9834;SDS011;4956;50.996;13.716;2022-08-18T18:05:36;10.18;;;9.23;;
9834;SDS011;4956;50.996;13.716;2022-08-18T18:09:02;12.30;;;10.18;;
9834;SDS011;4956;50.996;13.716;2022-08-18T18:12:25;12.55;;;9.40;;
9834;SDS011;4956;50.996;13.716;2022-08-18T18:16:33;11.00;;;9.40;;
9834;SDS011;4956;50.996;13.716;2022-08-18T18:19:47;9.82;;;8.82;;
9834;SDS011;4956;50.996;13.716;2022-08-18T18:23:19;10.88;;;9.77;;
9834;SDS011;4956;50.996;13.716;2022-08-18T18:26:45;10.73;;;9.40;;
9834;SDS011;4956;50.996;13.716;2022-08-18T18:30:27;10.23;;;9.23;;
9834;SDS011;4956;50.996;13.716;2022-08-18T18:34:02;11.45;;;10.35;;
9834;SDS011;4956;50.996;13.716;2022-08-18T18:37:28;9.65;;;8.75;;
9834;SDS011;4956;50.996;13.716;2022-08-18T18:40:53;9.85;;;8.95;;
9834;SDS011;4956;50.996;13.716;2022-08-18T18:44:26;10.73;;;9.73;;
9834;SDS011;4956;50.996;13.716;2022-08-18T18:55:23;10.40;;;9.40;;
9834;SDS011;4956;50.996;13.716;2022-08-18T19:09:56;11.48;;;9.93;;
9834;SDS011;4956;50.996;13.716;2022-08-18T19:13:29;10.90;;;9.88;;
9834;SDS011;4956;50.996;13.716;2022-08-18T19:16:52;10.30;;;9.30;;
9834;SDS011;4956;50.996;13.716;2022-08-18T19:20:17;11.10;;;10.10;;
9834;SDS011;4956;50.996;13.716;2022-08-18T19:23:51;10.88;;;9.80;;
9834;SDS011;4956;50.996;13.716;2022-08-18T19:27:21;12.82;;;10.18;;
9834;SDS011;4956;50.996;13.716;2022-08-18T19:30:45;11.82;;;10.13;;
9834;SDS011;4956;50.996;13.716;2022-08-18T19:34:20;10.68;;;9.68;;
9834;SDS011;4956;50.996;13.716;2022-08-18T19:37:49;14.68;;;10.40;;
9834;SDS011;4956;50.996;13.716;2022-08-18T19:41:21;12.40;;;10.40;;
9834;SDS011;4956;50.996;13.716;2022-08-18T19:44:59;11.85;;;9.95;;
9834;SDS011;4956;50.996;13.716;2022-08-18T19:52:21;12.27;;;10.73;;
9834;SDS011;4956;50.996;13.716;2022-08-18T19:59:46;12.98;;;10.80;;
9834;SDS011;4956;50.996;13.716;2022-08-18T20:07:08;12.43;;;11.02;;
9834;SDS011;4956;50.996;13.716;2022-08-18T20:10:48;15.05;;;12.05;;
9834;SDS011;4956;50.996;13.716;2022-08-18T20:14:21;12.95;;;11.63;;
9834;SDS011;4956;50.996;13.716;2022-08-18T20:24:43;12.77;;;11.57;;
9834;SDS011;4956;50.996;13.716;2022-08-18T20:35:15;14.02;;;12.73;;
9834;SDS011;4956;50.996;13.716;2022-08-18T20:38:39;16.17;;;13.30;;
9834;SDS011;4956;50.996;13.716;2022-08-18T20:42:03;15.20;;;13.40;;
9834;SDS011;4956;50.996;13.716;2022-08-18T20:45:27;13.15;;;11.85;;
9834;SDS011;4956;50.996;13.716;2022-08-18T20:52:44;14.68;;;13.18;;
9834;SDS011;4956;50.996;13.716;2022-08-18T20:56:21;13.73;;;12.38;;
9834;SDS011;4956;50.996;13.716;2022-08-18T20:59:54;14.40;;;13.00;;
9834;SDS011;4956;50.996;13.716;2022-08-18T21:03:21;13.23;;;11.85;;
9834;SDS011;4956;50.996;13.716;2022-08-18T21:06:43;14.43;;;12.23;;
9834;SDS011;4956;50.996;13.716;2022-08-18T21:10:11;13.82;;;12.30;;
9834;SDS011;4956;50.996;13.716;2022-08-18T21:13:36;14.10;;;11.52;;
9834;SDS011;4956;50.996;13.716;2022-08-18T21:17:11;13.40;;;12.00;;
9834;SDS011;4956;50.996;13.716;2022-08-18T21:20:32;12.85;;;11.60;;
9834;SDS011;4956;50.996;13.716;2022-08-18T21:23:54;13.30;;;11.90;;
9834;SDS011;4956;50.996;13.716;2022-08-18T21:27:26;13.68;;;12.38;;
9834;SDS011;4956;50.996;13.716;2022-08-18T21:30:58;15.63;;;14.00;;
9834;SDS011;4956;50.996;13.716;2022-08-18T21:34:32;13.60;;;12.20;;
9834;SDS011;4956;50.996;13.716;2022-08-18T21:37:59;14.20;;;12.77;;
9834;SDS011;4956;50.996;13.716;2022-08-18T21:41:22;13.73;;;12.27;;
9834;SDS011;4956;50.996;13.716;2022-08-18T21:44:45;15.40;;;13.80;;
9834;SDS011;4956;50.996;13.716;2022-08-18T21:48:05;13.68;;;12.10;;
9834;SDS011;4956;50.996;13.716;2022-08-18T21:51:30;14.63;;;13.23;;
9834;SDS011;4956;50.996;13.716;2022-08-18T21:55:00;14.40;;;12.90;;
9834;SDS011;4956;50.996;13.716;2022-08-18T22:01:54;14.48;;;12.95;;
9834;SDS011;4956;50.996;13.716;2022-08-18T22:05:29;16.20;;;14.50;;
9834;SDS011;4956;50.996;13.716;2022-08-18T22:12:53;14.75;;;13.25;;
9834;SDS011;4956;50.996;13.716;2022-08-18T22:16:34;15.48;;;13.82;;
9834;SDS011;4956;50.996;13.716;2022-08-18T22:20:16;14.73;;;13.20;;
9834;SDS011;4956;50.996;13.716;2022-08-18T22:23:54;15.02;;;13.52;;
9834;SDS011;4956;50.996;13.716;2022-08-18T22:27:33;15.38;;;13.77;;
9834;SDS011;4956;50.996;13.716;2022-08-18T22:30:55;14.50;;;12.70;;
9834;SDS011;4956;50.996;13.716;2022-08-18T22:34:19;12.80;;;11.60;;
9834;SDS011;4956;50.996;13.716;2022-08-18T22:37:44;13.82;;;12.50;;
9834;SDS011;4956;50.996;13.716;2022-08-18T22:41:04;15.35;;;13.75;;
9834;SDS011;4956;50.996;13.716;2022-08-18T22:44:25;14.47;;;13.00;;
9834;SDS011;4956;50.996;13.716;2022-08-18T22:47:47;16.02;;;13.02;;
9834;SDS011;4956;50.996;13.716;2022-08-18T22:51:08;16.55;;;13.50;;
9834;SDS011;4956;50.996;13.716;2022-08-18T22:54:28;14.43;;;13.02;;
9834;SDS011;4956;50.996;13.716;2022-08-18T22:57:49;14.77;;;13.27;;
9834;SDS011;4956;50.996;13.716;2022-08-18T23:01:09;14.45;;;12.80;;
9834;SDS011;4956;50.996;13.716;2022-08-18T23:04:30;15.77;;;13.98;;
9834;SDS011;4956;50.996;13.716;2022-08-18T23:07:50;14.30;;;12.80;;
9834;SDS011;4956;50.996;13.716;2022-08-18T23:11:11;15.13;;;13.53;;
9834;SDS011;4956;50.996;13.716;2022-08-18T23:14:32;14.52;;;13.00;;
9834;SDS011;4956;50.996;13.716;2022-08-18T23:17:52;14.10;;;12.70;;
9834;SDS011;4956;50.996;13.716;2022-08-18T23:21:13;15.20;;;13.53;;
9834;SDS011;4956;50.996;13.716;2022-08-18T23:24:33;15.05;;;13.43;;
9834;SDS011;4956;50.996;13.716;2022-08-18T23:27:54;14.07;;;12.70;;
9834;SDS011;4956;50.996;13.716;2022-08-18T23:31:15;14.37;;;12.93;;